createdAt,value
2023-02-22T00:01:28.324Z,58.80
2023-02-22T00:03:56.158Z,58.80
2023-02-22T00:06:25.744Z,58.80
2023-02-22T00:08:55.698Z,58.80
2023-02-22T00:11:23.545Z,58.70
2023-02-22T00:13:51.618Z,58.70
2023-02-22T00:16:20.482Z,58.80
2023-02-22T00:18:48.436Z,58.70
2023-02-22T00:21:24.232Z,58.80
2023-02-22T00:23:54.721Z,58.80
2023-02-22T00:26:24.594Z,58.80
2023-02-22T00:28:53.627Z,58.80
2023-02-22T00:31:21.537Z,58.80
2023-02-22T00:33:49.741Z,58.70
2023-02-22T00:36:17.751Z,58.70
2023-02-22T00:38:46.397Z,58.70
2023-02-22T00:41:14.724Z,58.70
2023-02-22T00:43:44.963Z,58.80
2023-02-22T00:46:14.505Z,58.80
2023-02-22T00:48:43.190Z,58.70
2023-02-22T00:51:11.215Z,58.70
2023-02-22T00:53:39.718Z,58.70
2023-02-22T00:56:08.237Z,58.70
2023-02-22T00:58:36.412Z,58.70
2023-02-22T01:01:05.879Z,58.80
2023-02-22T01:03:35.630Z,58.60
2023-02-22T01:06:03.592Z,58.70
2023-02-22T01:08:32.650Z,58.70
2023-02-22T01:11:00.639Z,58.70
2023-02-22T01:13:28.591Z,58.70
2023-02-22T01:15:56.917Z,58.70
2023-02-22T01:18:27.265Z,58.80
2023-02-22T01:20:55.074Z,58.80
2023-02-22T01:23:23.305Z,59.00
2023-02-22T01:25:51.291Z,58.90
2023-02-22T01:28:19.308Z,59.00
2023-02-22T01:30:47.618Z,59.00
2023-02-22T01:33:15.990Z,59.10
2023-02-22T01:35:46.634Z,59.10
2023-02-22T01:38:15.138Z,59.20
2023-02-22T01:40:44.486Z,59.30
2023-02-22T01:43:18.084Z,59.40
2023-02-22T01:46:00.063Z,59.40
2023-02-22T01:48:40.319Z,59.40
2023-02-22T01:51:12.909Z,59.40
2023-02-22T01:53:45.132Z,59.70
2023-02-22T01:56:13.563Z,59.60
2023-02-22T01:58:42.976Z,59.70
2023-02-22T02:01:11.122Z,59.80
2023-02-22T02:03:39.699Z,59.80
2023-02-22T02:06:12.261Z,59.70
2023-02-22T02:08:51.683Z,59.80
2023-02-22T02:11:21.674Z,59.80
2023-02-22T02:13:51.161Z,59.90
2023-02-22T02:16:19.189Z,59.90
2023-02-22T02:18:47.544Z,59.90
2023-02-22T02:21:41.797Z,59.90
2023-02-22T02:24:50.425Z,60.10
2023-02-22T02:27:20.006Z,60.00
2023-02-22T02:30:33.628Z,60.10
2023-02-22T02:33:04.616Z,60.20
2023-02-22T02:35:52.060Z,60.30
2023-02-22T02:38:26.220Z,60.20
2023-02-22T02:40:59.236Z,60.40
2023-02-22T02:43:30.819Z,60.30
2023-02-22T02:46:02.740Z,60.20
2023-02-22T02:48:32.854Z,60.40
2023-02-22T02:51:02.441Z,60.30
2023-02-22T02:53:34.343Z,60.30
2023-02-22T02:56:02.309Z,60.30
2023-02-22T02:58:30.403Z,60.20
2023-02-22T03:00:59.564Z,60.40
2023-02-22T03:03:47.691Z,60.40
2023-02-22T03:06:30.480Z,60.40
2023-02-22T03:09:00.617Z,60.40
2023-02-22T03:11:29.734Z,60.70
2023-02-22T03:14:02.827Z,60.60
2023-02-22T03:16:34.106Z,60.60
2023-02-22T03:19:07.395Z,60.60
2023-02-22T03:21:37.935Z,60.70
2023-02-22T03:24:08.470Z,60.70
2023-02-22T03:26:41.006Z,60.90
2023-02-22T03:29:09.509Z,60.90
2023-02-22T03:31:39.626Z,60.60
2023-02-22T03:34:10.755Z,60.80
2023-02-22T03:36:40.426Z,60.70
2023-02-22T03:39:10.643Z,61.00
2023-02-22T03:41:39.767Z,60.80
2023-02-22T03:44:09.399Z,61.20
2023-02-22T03:46:37.703Z,61.10
2023-02-22T03:49:09.882Z,61.00
2023-02-22T03:51:37.643Z,61.10
2023-02-22T03:54:06.199Z,61.00
2023-02-22T03:56:36.568Z,60.90
2023-02-22T03:59:05.399Z,61.00
2023-02-22T04:01:33.144Z,61.00
2023-02-22T04:04:01.309Z,60.90
2023-02-22T04:06:30.981Z,61.20
2023-02-22T04:08:58.920Z,61.90
2023-02-22T04:11:27.186Z,61.20
2023-02-22T04:13:55.831Z,61.10
2023-02-22T04:16:24.230Z,61.10
2023-02-22T04:18:52.331Z,61.40
2023-02-22T04:21:20.957Z,61.30
2023-02-22T04:23:50.319Z,61.20
2023-02-22T04:26:18.840Z,61.20
2023-02-22T04:28:56.401Z,61.40
2023-02-22T04:31:24.966Z,61.40
2023-02-22T04:33:52.959Z,61.50
2023-02-22T04:36:21.746Z,61.40
2023-02-22T04:38:51.441Z,61.40
2023-02-22T04:41:19.551Z,61.50
2023-02-22T04:43:47.959Z,61.50
2023-02-22T04:46:15.776Z,61.20
2023-02-22T04:48:43.659Z,61.50
2023-02-22T04:51:11.602Z,61.60
2023-02-22T04:53:39.575Z,61.50
2023-02-22T04:56:09.156Z,61.40
2023-02-22T04:58:37.590Z,61.60
2023-02-22T05:01:05.629Z,61.70
2023-02-22T05:03:33.443Z,61.50
2023-02-22T05:06:01.534Z,61.70
2023-02-22T05:08:29.700Z,61.50
2023-02-22T05:10:57.713Z,61.70
2023-02-22T05:13:27.512Z,61.70
2023-02-22T05:15:55.540Z,61.70
2023-02-22T05:18:23.986Z,61.60
2023-02-22T05:20:51.943Z,61.70
2023-02-22T05:23:20.425Z,61.70
2023-02-22T05:25:48.432Z,61.60
2023-02-22T05:28:17.179Z,61.60
2023-02-22T05:30:46.592Z,61.90
2023-02-22T05:33:14.883Z,61.70
2023-02-22T05:35:42.770Z,61.70
2023-02-22T05:38:11.655Z,61.80
2023-02-22T05:40:39.714Z,61.70
2023-02-22T05:43:07.708Z,61.90
2023-02-22T05:45:36.220Z,61.80
2023-02-22T05:48:06.118Z,61.70
2023-02-22T05:50:34.587Z,61.80
2023-02-22T05:53:02.629Z,61.80
2023-02-22T05:55:31.026Z,61.70
2023-02-22T05:57:59.118Z,61.90
2023-02-22T06:00:29.086Z,61.90
2023-02-22T06:02:57.895Z,61.90
2023-02-22T06:05:27.656Z,61.80
2023-02-22T06:07:55.808Z,62.10
2023-02-22T06:10:23.971Z,62.00
2023-02-22T06:12:52.258Z,62.00
2023-02-22T06:15:20.627Z,62.10
2023-02-22T06:17:48.493Z,62.20
2023-02-22T06:20:17.266Z,62.00
2023-02-22T06:22:48.224Z,62.10
2023-02-22T06:25:16.596Z,62.10
2023-02-22T06:27:44.957Z,62.10
2023-02-22T06:30:13.609Z,62.10
2023-02-22T06:32:41.640Z,62.20
2023-02-22T06:35:09.589Z,62.00
2023-02-22T06:37:38.649Z,62.20
2023-02-22T06:40:08.277Z,62.10
2023-02-22T06:42:36.888Z,62.20
2023-02-22T06:45:05.250Z,62.20
2023-02-22T06:47:39.269Z,62.20
2023-02-22T06:50:07.854Z,62.20
2023-02-22T06:52:36.275Z,62.10
2023-02-22T06:55:04.230Z,62.30
2023-02-22T06:57:33.839Z,62.20
2023-02-22T07:00:01.836Z,62.20
2023-02-22T07:02:29.759Z,62.10
2023-02-22T07:04:58.178Z,62.10
2023-02-22T07:07:26.426Z,62.30
2023-02-22T07:09:54.686Z,62.20
2023-02-22T07:12:22.666Z,62.20
2023-02-22T07:14:52.554Z,62.30
2023-02-22T07:17:20.538Z,62.20
2023-02-22T07:19:48.890Z,62.20
2023-02-22T07:22:17.601Z,62.30
2023-02-22T07:24:45.938Z,62.10
2023-02-22T07:27:13.812Z,62.20
2023-02-22T07:29:44.140Z,62.00
2023-02-22T07:32:13.560Z,62.20
2023-02-22T07:34:43.493Z,62.10
2023-02-22T07:37:11.831Z,62.10
2023-02-22T07:39:55.881Z,61.90
2023-02-22T07:42:23.802Z,62.10
2023-02-22T07:44:51.681Z,62.20
2023-02-22T07:47:21.467Z,62.30
2023-02-22T07:49:49.291Z,62.30
2023-02-22T07:52:18.103Z,62.30
2023-02-22T07:54:47.817Z,62.20
2023-02-22T07:57:17.315Z,62.10
2023-02-22T07:59:53.972Z,62.20
2023-02-22T08:02:23.878Z,62.20
2023-02-22T08:04:51.892Z,62.00
2023-02-22T08:07:20.258Z,62.00
2023-02-22T08:09:48.207Z,61.90
2023-02-22T08:12:16.980Z,62.10
2023-02-22T08:14:44.992Z,62.20
2023-02-22T08:17:13.318Z,62.00
2023-02-22T08:19:42.821Z,62.00
2023-02-22T08:22:11.470Z,61.90
2023-02-22T08:24:40.667Z,61.90
2023-02-22T08:27:09.298Z,62.00
2023-02-22T08:29:37.140Z,62.10
2023-02-22T08:32:06.035Z,61.80
2023-02-22T08:34:33.853Z,61.80
2023-02-22T08:37:03.340Z,61.60
2023-02-22T08:39:31.307Z,61.50
2023-02-22T08:41:59.222Z,61.70
2023-02-22T08:44:27.708Z,61.50
2023-02-22T08:46:56.246Z,61.60
2023-02-22T08:49:24.580Z,61.50
2023-02-22T08:51:52.370Z,61.60
2023-02-22T08:54:22.869Z,61.50
2023-02-22T08:56:51.013Z,61.50
2023-02-22T08:59:19.511Z,61.40
2023-02-22T09:01:47.345Z,61.30
2023-02-22T09:04:15.566Z,61.20
2023-02-22T09:06:44.136Z,61.30
2023-02-22T09:09:12.382Z,61.40
2023-02-22T09:11:41.466Z,61.40
2023-02-22T09:14:09.725Z,61.40
2023-02-22T09:16:39.291Z,61.20
2023-02-22T09:19:07.794Z,61.40
2023-02-22T09:21:35.738Z,61.40
2023-02-22T09:24:08.746Z,61.40
2023-02-22T09:26:39.350Z,61.40
2023-02-22T09:29:11.242Z,61.50
2023-02-22T09:31:39.762Z,61.50
2023-02-22T09:34:14.114Z,61.20
2023-02-22T09:36:42.174Z,61.30
2023-02-22T09:39:11.211Z,61.30
2023-02-22T09:41:41.659Z,61.40
2023-02-22T09:44:17.666Z,61.20
2023-02-22T09:46:46.270Z,61.10
2023-02-22T09:49:20.179Z,60.90
2023-02-22T09:51:50.567Z,60.80
2023-02-22T09:54:22.635Z,60.80
2023-02-22T09:56:51.154Z,60.50
2023-02-22T09:59:23.725Z,60.60
2023-02-22T10:01:55.636Z,60.50
2023-02-22T10:04:24.734Z,60.40
2023-02-22T10:07:06.401Z,60.40
2023-02-22T10:09:37.679Z,60.30
2023-02-22T10:12:09.536Z,59.90
2023-02-22T10:14:52.277Z,59.80
2023-02-22T10:17:27.642Z,59.70
2023-02-22T10:20:13.397Z,59.70
2023-02-22T10:22:46.278Z,59.50
2023-02-22T10:25:15.005Z,59.60
2023-02-22T10:27:44.289Z,59.60
2023-02-22T10:30:25.055Z,59.60
2023-02-22T10:32:58.546Z,59.20
2023-02-22T10:35:27.912Z,59.40
2023-02-22T10:37:57.773Z,59.30
2023-02-22T10:40:32.235Z,59.30
2023-02-22T10:43:03.655Z,59.30
2023-02-22T10:45:33.723Z,59.10
2023-02-22T10:48:03.380Z,59.10
2023-02-22T10:50:31.880Z,58.90
2023-02-22T10:53:00.442Z,58.90
2023-02-22T10:55:28.486Z,58.80
2023-02-22T10:58:02.118Z,58.70
2023-02-22T11:00:32.784Z,58.40
2023-02-22T11:03:01.764Z,58.20
2023-02-22T11:05:31.959Z,58.40
2023-02-22T11:08:17.265Z,58.00
2023-02-22T11:10:45.185Z,57.80
2023-02-22T11:13:20.607Z,57.80
2023-02-22T11:15:50.359Z,57.80
2023-02-22T11:18:24.446Z,57.60
2023-02-22T11:21:00.890Z,57.60
2023-02-22T11:23:29.457Z,57.40
2023-02-22T11:26:07.333Z,57.30
2023-02-22T11:28:35.702Z,57.10
2023-02-22T11:31:23.866Z,56.90
2023-02-22T11:34:05.430Z,56.50
2023-02-22T11:36:46.663Z,56.30
2023-02-22T11:39:27.057Z,55.70
2023-02-22T11:41:57.582Z,55.50
2023-02-22T11:44:29.007Z,55.40
2023-02-22T11:47:01.447Z,55.30
2023-02-22T11:49:34.490Z,55.00
2023-02-22T11:52:27.158Z,54.80
2023-02-22T11:55:03.081Z,54.60
2023-02-22T11:57:41.163Z,54.60
2023-02-22T12:00:17.707Z,54.60
2023-02-22T12:03:06.755Z,54.80
2023-02-22T12:06:07.624Z,54.80
2023-02-22T12:08:53.442Z,55.10
2023-02-22T12:11:24.802Z,55.20
2023-02-22T12:14:00.456Z,55.50
2023-02-22T12:16:33.250Z,55.50
2023-02-22T12:19:12.429Z,55.60
2023-02-22T12:21:42.222Z,55.60
2023-02-22T12:24:14.302Z,55.70
2023-02-22T12:26:43.717Z,55.60
2023-02-22T12:29:14.436Z,55.50
2023-02-22T12:31:45.414Z,55.30
2023-02-22T12:34:19.977Z,55.10
2023-02-22T12:36:50.292Z,55.00
2023-02-22T12:39:26.743Z,54.80
2023-02-22T12:41:56.625Z,54.60
2023-02-22T12:44:26.771Z,54.40
2023-02-22T12:46:57.112Z,54.20
2023-02-22T12:49:29.485Z,54.00
2023-02-22T12:52:03.075Z,53.80
2023-02-22T12:54:39.961Z,53.80
2023-02-22T12:57:11.824Z,54.00
2023-02-22T12:59:42.276Z,54.00
2023-02-22T13:02:15.068Z,54.30
2023-02-22T13:04:44.549Z,54.50
2023-02-22T13:07:28.454Z,54.70
2023-02-22T13:10:23.347Z,54.80
2023-02-22T13:12:54.689Z,55.00
2023-02-22T13:15:24.742Z,55.10
2023-02-22T13:18:01.534Z,55.00
2023-02-22T13:20:33.688Z,55.00
2023-02-22T13:23:10.646Z,55.00
2023-02-22T13:25:44.384Z,54.80
2023-02-22T13:28:21.940Z,54.60
2023-02-22T13:30:58.512Z,54.40
2023-02-22T13:33:33.796Z,54.20
2023-02-22T13:36:15.933Z,54.00
2023-02-22T13:39:00.032Z,53.70
2023-02-22T13:41:52.076Z,53.80
2023-02-22T13:45:04.904Z,53.70
2023-02-22T13:47:55.221Z,53.80
2023-02-22T13:50:44.962Z,53.80
2023-02-22T13:53:16.306Z,53.90
2023-02-22T13:55:47.171Z,54.10
2023-02-22T13:58:15.523Z,54.20
2023-02-22T14:00:46.458Z,54.40
2023-02-22T14:03:37.573Z,54.50
2023-02-22T14:06:06.724Z,54.60
2023-02-22T14:08:45.763Z,54.70
2023-02-22T14:11:46.844Z,54.70
2023-02-22T14:14:21.312Z,54.80
2023-02-22T14:17:32.424Z,54.90
2023-02-22T14:20:19.797Z,54.80
2023-02-22T14:22:48.756Z,54.80
2023-02-22T14:25:36.333Z,54.80
2023-02-22T14:28:05.115Z,54.80
2023-02-22T14:30:33.947Z,54.90
2023-02-22T14:33:02.800Z,54.90
2023-02-22T14:35:47.868Z,54.90
2023-02-22T14:38:19.513Z,54.80
2023-02-22T14:40:51.696Z,54.90
2023-02-22T14:43:21.631Z,54.90
2023-02-22T14:45:54.909Z,54.90
2023-02-22T14:48:29.521Z,55.50
2023-02-22T14:51:02.000Z,55.10
2023-02-22T14:53:38.317Z,55.10
2023-02-22T14:56:12.119Z,55.30
2023-02-22T14:58:46.146Z,55.20
2023-02-22T15:01:44.418Z,55.30
2023-02-22T15:04:19.746Z,55.30
2023-02-22T15:06:50.521Z,55.40
2023-02-22T15:09:27.007Z,55.40
2023-02-22T15:12:13.958Z,55.60
2023-02-22T15:14:50.044Z,55.70
2023-02-22T15:17:24.795Z,55.70
2023-02-22T15:19:58.669Z,55.70
2023-02-22T15:22:31.973Z,55.70
2023-02-22T15:25:05.731Z,55.90
2023-02-22T15:27:37.088Z,56.00
2023-02-22T15:30:07.116Z,55.90
2023-02-22T15:32:36.758Z,56.00
2023-02-22T15:35:17.098Z,56.20
2023-02-22T15:37:45.339Z,56.00
2023-02-22T15:40:17.392Z,56.20
2023-02-22T15:42:48.298Z,56.20
2023-02-22T15:45:18.520Z,56.30
2023-02-22T15:47:46.553Z,56.20
2023-02-22T15:50:21.625Z,56.30
2023-02-22T15:52:53.104Z,56.30
2023-02-22T15:55:21.167Z,56.30
2023-02-22T15:57:50.284Z,56.40
2023-02-22T16:00:24.273Z,56.40
2023-02-22T16:02:52.234Z,56.40
2023-02-22T16:05:20.103Z,56.40
2023-02-22T16:07:50.479Z,56.40
2023-02-22T16:10:27.646Z,56.40
2023-02-22T16:13:08.013Z,56.60
2023-02-22T16:15:36.050Z,56.50
2023-02-22T16:18:24.631Z,56.60
2023-02-22T16:20:59.661Z,56.70
2023-02-22T16:23:27.993Z,56.70
2023-02-22T16:26:06.943Z,56.70
2023-02-22T16:28:36.585Z,56.70
2023-02-22T16:31:04.821Z,56.80
2023-02-22T16:33:34.266Z,56.80
2023-02-22T16:36:06.186Z,56.90
2023-02-22T16:38:38.676Z,57.00
2023-02-22T16:41:07.595Z,57.00
2023-02-22T16:43:37.814Z,57.00
2023-02-22T16:46:07.126Z,57.00
2023-02-22T16:48:38.139Z,57.10
2023-02-22T16:51:15.491Z,57.20
2023-02-22T16:53:44.905Z,57.10
2023-02-22T16:56:13.235Z,57.20
2023-02-22T16:58:42.467Z,57.20
2023-02-22T17:01:12.980Z,57.20
2023-02-22T17:03:40.982Z,57.30
2023-02-22T17:06:10.481Z,57.30
2023-02-22T17:08:38.705Z,57.30
2023-02-22T17:11:06.787Z,57.40
2023-02-22T17:13:35.463Z,57.40
2023-02-22T17:16:05.590Z,57.40
2023-02-22T17:18:34.830Z,57.50
2023-02-22T17:21:03.467Z,57.60
2023-02-22T17:23:31.535Z,57.60
2023-02-22T17:26:02.302Z,57.60
2023-02-22T17:28:30.990Z,57.60
2023-02-22T17:31:01.583Z,57.70
2023-02-22T17:33:33.249Z,57.70
2023-02-22T17:36:05.028Z,57.70
2023-02-22T17:38:34.573Z,57.80
2023-02-22T17:41:03.345Z,57.90
2023-02-22T17:43:31.694Z,57.80
2023-02-22T17:46:00.144Z,57.90
2023-02-22T17:48:28.296Z,57.90
2023-02-22T17:50:57.810Z,57.90
2023-02-22T17:53:25.830Z,58.00
2023-02-22T17:55:53.984Z,58.00
2023-02-22T17:58:23.700Z,58.00
2023-02-22T18:00:51.912Z,58.00
2023-02-22T18:03:21.899Z,58.00
2023-02-22T18:05:51.045Z,58.10
2023-02-22T18:08:20.556Z,58.00
2023-02-22T18:10:53.067Z,58.10
2023-02-22T18:13:20.932Z,58.20
2023-02-22T18:15:49.043Z,58.20
2023-02-22T18:18:17.852Z,58.20
2023-02-22T18:20:46.078Z,58.20
2023-02-22T18:23:16.019Z,58.20
2023-02-22T18:26:03.898Z,58.30
2023-02-22T18:28:37.528Z,58.30
2023-02-22T18:31:08.609Z,58.40
2023-02-22T18:33:36.644Z,58.40
2023-02-22T18:36:04.954Z,58.40
2023-02-22T18:38:33.221Z,58.50
2023-02-22T18:41:03.112Z,58.40
2023-02-22T18:43:31.885Z,58.50
2023-02-22T18:46:06.844Z,58.60
2023-02-22T18:48:35.238Z,58.60
2023-02-22T18:51:03.368Z,58.50
2023-02-22T18:53:31.484Z,58.50
2023-02-22T18:56:05.631Z,58.50
2023-02-22T18:58:33.932Z,58.50
2023-02-22T19:01:01.958Z,58.70
2023-02-22T19:03:30.120Z,58.70
2023-02-22T19:06:02.200Z,58.60
2023-02-22T19:08:32.519Z,58.70
2023-02-22T19:11:06.945Z,58.70
2023-02-22T19:13:36.403Z,58.70
2023-02-22T19:16:04.842Z,58.70
2023-02-22T19:18:32.832Z,58.80
2023-02-22T19:21:01.072Z,58.80
2023-02-22T19:23:34.247Z,58.80
2023-02-22T19:26:04.648Z,59.60
2023-02-22T19:28:34.778Z,58.90
2023-02-22T19:31:15.140Z,58.80
2023-02-22T19:33:43.078Z,58.90
2023-02-22T19:36:11.523Z,58.90
2023-02-22T19:38:39.778Z,59.00
2023-02-22T19:41:10.635Z,58.90
2023-02-22T19:43:38.657Z,59.00
2023-02-22T19:46:07.617Z,59.00
2023-02-22T19:48:35.694Z,59.00
2023-02-22T19:51:06.202Z,59.10
2023-02-22T19:53:34.329Z,59.10
2023-02-22T19:56:06.145Z,59.20
2023-02-22T19:58:36.775Z,59.20
2023-02-22T20:01:12.729Z,59.10
2023-02-22T20:03:41.905Z,59.20
2023-02-22T20:06:10.392Z,59.30
2023-02-22T20:08:42.172Z,59.20
2023-02-22T20:11:10.700Z,59.30
2023-02-22T20:13:41.560Z,59.40
2023-02-22T20:16:10.925Z,59.30
2023-02-22T20:18:38.900Z,59.30
2023-02-22T20:21:10.170Z,59.40
2023-02-22T20:23:40.158Z,59.50
2023-02-22T20:26:10.416Z,59.40
2023-02-22T20:28:40.065Z,59.50
2023-02-22T20:31:11.250Z,59.40
2023-02-22T20:33:41.740Z,59.50
2023-02-22T20:36:10.895Z,59.60
2023-02-22T20:38:39.400Z,59.60
2023-02-22T20:41:08.064Z,59.60
2023-02-22T20:43:36.341Z,59.70
2023-02-22T20:46:06.421Z,59.60
2023-02-22T20:48:34.882Z,59.60
2023-02-22T20:51:06.505Z,59.80
2023-02-22T20:53:35.767Z,59.70
2023-02-22T20:56:04.253Z,59.70
2023-02-22T20:58:32.427Z,59.80
2023-02-22T21:01:06.251Z,59.80
2023-02-22T21:03:34.399Z,59.80
2023-02-22T21:06:02.488Z,59.80
2023-02-22T21:08:31.249Z,59.90
2023-02-22T21:10:59.386Z,59.90
2023-02-22T21:13:27.502Z,59.90
2023-02-22T21:15:55.896Z,59.80
2023-02-22T21:18:25.310Z,60.00
2023-02-22T21:20:54.228Z,59.90
2023-02-22T21:23:22.130Z,60.00
2023-02-22T21:25:53.557Z,59.90
2023-02-22T21:28:22.308Z,59.90
2023-02-22T21:30:51.454Z,60.10
2023-02-22T21:33:19.450Z,60.10
2023-02-22T21:35:51.282Z,60.10
2023-02-22T21:38:21.007Z,60.10
2023-02-22T21:40:49.334Z,60.20
2023-02-22T21:43:17.371Z,60.20
2023-02-22T21:45:45.233Z,60.20
2023-02-22T21:48:13.547Z,60.20
2023-02-22T21:50:41.455Z,60.40
2023-02-22T21:53:10.561Z,60.40
2023-02-22T21:55:38.480Z,60.60
2023-02-22T21:58:07.288Z,60.40
2023-02-22T22:00:38.333Z,60.60
2023-02-22T22:03:08.963Z,60.60
2023-02-22T22:05:40.320Z,60.70
2023-02-22T22:08:08.493Z,60.60
2023-02-22T22:10:37.987Z,60.70
2023-02-22T22:13:09.384Z,60.70
2023-02-22T22:15:37.419Z,60.90
2023-02-22T22:18:07.709Z,60.80
2023-02-22T22:20:37.957Z,60.80
2023-02-22T22:23:06.632Z,61.00
2023-02-22T22:25:38.101Z,60.90
2023-02-22T22:28:08.678Z,61.00
2023-02-22T22:30:37.164Z,60.90
2023-02-22T22:33:08.741Z,61.00
2023-02-22T22:35:36.684Z,61.10
2023-02-22T22:38:04.898Z,61.10
2023-02-22T22:40:34.402Z,61.10
2023-02-22T22:43:02.424Z,61.20
2023-02-22T22:45:33.178Z,61.20
2023-02-22T22:48:02.180Z,61.20
2023-02-22T22:50:30.383Z,61.30
2023-02-22T22:52:58.338Z,61.30
2023-02-22T22:55:26.442Z,61.30
2023-02-22T22:57:54.400Z,61.30
2023-02-22T23:00:30.829Z,61.30
2023-02-22T23:03:00.222Z,61.30
2023-02-22T23:05:28.880Z,61.40
2023-02-22T23:07:57.196Z,61.40
2023-02-22T23:10:28.006Z,61.30
2023-02-22T23:12:56.531Z,61.40
2023-02-22T23:15:24.692Z,61.60
2023-02-22T23:17:56.183Z,61.50
2023-02-22T23:20:31.343Z,61.20
2023-02-22T23:22:59.223Z,61.20
2023-02-22T23:25:27.047Z,61.10
2023-02-22T23:27:55.605Z,61.20
2023-02-22T23:30:27.537Z,61.20
2023-02-22T23:32:58.909Z,61.10
2023-02-22T23:35:28.862Z,61.20
2023-02-22T23:37:59.041Z,61.20
2023-02-22T23:40:27.215Z,61.30
2023-02-22T23:42:56.622Z,61.40
2023-02-22T23:45:24.782Z,61.50
2023-02-22T23:47:54.953Z,61.40
2023-02-22T23:50:24.642Z,61.60
2023-02-22T23:52:59.110Z,61.60
2023-02-22T23:55:27.449Z,62.30
2023-02-22T23:57:59.334Z,61.70
